Yards, Virginia
Current Conditions -  °F | °C
As of 7:52 AM on Thursday 30 Oct 2014 (Local Time) from KBLF Reporting Station
Clear Clear  
Wind Chill: 37°   Ceiling: Unl
Heat Index: 37°   Visibility: 10mi
Dew Point: 33°   Wind: 3mph
Humidity: 86%   Direction: 290°WNW
Pressure: 30.08"   Gusts: NA
Location:  37.2441°N, 81.3675°W
Report Text: KBLF 301152Z AUTO 29003KT 10SM CLR 03/01 A3008 RMK AO2 SLP188 70003 T00280006 10061 20022 51007
Loading
Personal Weather Stations






























Interactive Weather Map
Tropical Storm Tracking
New forecast layout! Learn more

10-Day Weather Forecast

Advertisements
Track Severe Weather on mobile